Time,TemperatureF,DewpointF,PressureIn,WindDirection,WindDirectionDegrees,WindSpeedMPH,WindSpeedGustMPH,Humidity,HourlyPrecipIn,Conditions,Clouds,dailyrainin,SoftwareType,DateUTC
2013-12-23 00:12:00,40.9,34.0,30.27,SW,223,0.0,0.0,77,0.00,,,0.00,weatherlink.com 1.10,2013-12-23 08:12:00,
2013-12-23 00:27:00,40.2,34.0,30.27,SW,223,0.0,0.0,77,0.00,,,0.00,weatherlink.com 1.10,2013-12-23 08:27:00,
2013-12-23 00:42:00,39.8,34.0,30.27,SW,223,0.0,0.0,79,0.00,,,0.00,weatherlink.com 1.10,2013-12-23 08:42:00,
2013-12-23 00:57:00,39.3,34.0,30.28,SW,223,0.0,0.0,80,0.00,,,0.00,weatherlink.com 1.10,2013-12-23 08:57:00,
2013-12-23 01:12:00,38.7,33.0,30.28,SW,223,0.0,0.0,81,0.00,,,0.00,weatherlink.com 1.10,2013-12-23 09:12:00,
2013-12-23 01:27:00,38.2,33.0,30.28,SW,223,0.0,0.0,82,0.00,,,0.00,weatherlink.com 1.10,2013-12-23 09:27:00,
2013-12-23 01:42:00,37.9,33.0,30.28,SW,223,0.0,0.0,83,0.00,,,0.00,weatherlink.com 1.10,2013-12-23 09:42:00,
2013-12-23 01:57:00,37.8,33.0,30.29,SW,223,0.0,0.0,84,0.00,,,0.00,weatherlink.com 1.10,2013-12-23 09:57:00,
2013-12-23 02:12:00,37.8,34.0,30.29,SW,223,0.0,0.0,85,0.00,,,0.00,weatherlink.com 1.10,2013-12-23 10:12:00,
2013-12-23 02:27:00,37.7,34.0,30.30,SW,223,0.0,0.0,85,0.00,,,0.00,weatherlink.com 1.10,2013-12-23 10:27:00,
2013-12-23 02:42:00,37.2,33.0,30.30,SW,223,0.0,0.0,84,0.00,,,0.00,weatherlink.com 1.10,2013-12-23 10:42:00,
2013-12-23 02:57:00,37.0,33.0,30.30,SW,223,0.0,0.0,85,0.00,,,0.00,weatherlink.com 1.10,2013-12-23 10:57:00,
2013-12-23 03:12:00,37.0,33.0,30.30,SW,223,0.0,0.0,86,0.00,,,0.00,weatherlink.com 1.10,2013-12-23 11:12:00,
2013-12-23 03:28:00,37.1,33.0,30.30,SW,223,0.0,0.0,86,0.00,,,0.00,weatherlink.com 1.10,2013-12-23 11:28:00,
2013-12-23 03:43:00,37.0,33.0,30.30,SW,223,0.0,0.0,86,0.00,,,0.00,weatherlink.com 1.10,2013-12-23 11:43:00,
2013-12-23 03:58:00,36.9,33.0,30.30,SW,223,0.0,0.0,86,0.00,,,0.00,weatherlink.com 1.10,2013-12-23 11:58:00,
2013-12-23 04:13:00,36.5,32.0,30.30,SW,223,0.0,0.0,85,0.00,,,0.00,weatherlink.com 1.10,2013-12-23 12:13:00,
2013-12-23 04:28:00,36.1,33.0,30.31,SW,223,0.0,0.0,87,0.00,,,0.00,weatherlink.com 1.10,2013-12-23 12:28:00,
2013-12-23 04:43:00,36.0,33.0,30.30,SW,223,0.0,0.0,88,0.00,,,0.00,weatherlink.com 1.10,2013-12-23 12:43:00,
2013-12-23 04:58:00,36.0,33.0,30.31,SW,223,0.0,0.0,88,0.00,,,0.00,weatherlink.com 1.10,2013-12-23 12:58:00,
2013-12-23 05:13:00,36.2,33.0,30.31,SW,223,0.0,0.0,89,0.00,,,0.00,weatherlink.com 1.10,2013-12-23 13:13:00,
2013-12-23 05:28:00,36.2,33.0,30.31,SW,223,0.0,0.0,89,0.00,,,0.00,weatherlink.com 1.10,2013-12-23 13:28:00,
2013-12-23 05:43:00,36.2,33.0,30.32,SW,223,0.0,0.0,89,0.00,,,0.00,weatherlink.com 1.10,2013-12-23 13:43:00,
2013-12-23 05:58:00,36.3,33.0,30.32,SW,223,0.0,0.0,89,0.00,,,0.00,weatherlink.com 1.10,2013-12-23 13:58:00,
2013-12-23 06:13:00,36.2,33.0,30.32,SW,223,0.0,0.0,88,0.00,,,0.00,weatherlink.com 1.10,2013-12-23 14:13:00,
2013-12-23 06:28:00,36.1,33.0,30.33,SW,223,0.0,0.0,88,0.00,,,0.00,weatherlink.com 1.10,2013-12-23 14:28:00,
2013-12-23 06:43:00,35.9,33.0,30.33,SW,223,0.0,0.0,88,0.00,,,0.00,weatherlink.com 1.10,2013-12-23 14:43:00,
2013-12-23 06:58:00,35.5,33.0,30.34,SW,223,0.0,0.0,89,0.00,,,0.00,weatherlink.com 1.10,2013-12-23 14:58:00,
2013-12-23 07:13:00,35.1,32.0,30.34,SW,223,0.0,0.0,89,0.00,,,0.00,weatherlink.com 1.10,2013-12-23 15:13:00,
2013-12-23 07:28:00,35.0,32.0,30.35,SW,223,0.0,0.0,90,0.00,,,0.00,weatherlink.com 1.10,2013-12-23 15:28:00,
2013-12-23 07:43:00,35.9,34.0,30.34,SW,223,0.0,0.0,91,0.00,,,0.00,weatherlink.com 1.10,2013-12-23 15:43:00,
2013-12-23 07:58:00,38.4,35.0,30.35,SW,223,0.0,0.0,87,0.00,,,0.00,weatherlink.com 1.10,2013-12-23 15:58:00,
2013-12-23 08:13:00,41.1,36.0,30.35,SW,223,0.0,1.0,82,0.00,,,0.00,weatherlink.com 1.10,2013-12-23 16:13:00,
2013-12-23 08:28:00,43.2,37.0,30.36,SW,223,0.0,0.0,78,0.00,,,0.00,weatherlink.com 1.10,2013-12-23 16:28:00,
2013-12-23 08:43:00,45.4,37.0,30.36,SW,223,0.0,0.0,73,0.00,,,0.00,weatherlink.com 1.10,2013-12-23 16:43:00,
2013-12-23 08:58:00,47.5,38.0,30.36,SW,223,0.0,0.0,69,0.00,,,0.00,weatherlink.com 1.10,2013-12-23 16:58:00,
2013-12-23 09:13:00,49.5,38.0,30.36,SW,223,0.0,1.0,66,0.00,,,0.00,weatherlink.com 1.10,2013-12-23 17:13:00,
2013-12-23 09:28:00,51.0,39.0,30.36,SW,223,0.0,1.0,63,0.00,,,0.00,weatherlink.com 1.10,2013-12-23 17:28:00,
2013-12-23 09:44:00,52.7,39.0,30.36,SW,223,0.0,0.0,60,0.00,,,0.00,weatherlink.com 1.10,2013-12-23 17:44:00,
2013-12-23 09:59:00,53.7,39.0,30.36,SW,223,0.0,0.0,59,0.00,,,0.00,weatherlink.com 1.10,2013-12-23 17:59:00,
2013-12-23 10:14:00,54.9,39.0,30.36,SW,223,0.0,0.0,56,0.00,,,0.00,weatherlink.com 1.10,2013-12-23 18:14:00,
2013-12-23 10:29:00,55.7,39.0,30.36,SW,223,0.0,1.0,53,0.00,,,0.00,weatherlink.com 1.10,2013-12-23 18:29:00,
2013-12-23 10:44:00,56.1,38.0,30.36,SW,223,0.0,0.0,52,0.00,,,0.00,weatherlink.com 1.10,2013-12-23 18:44:00,
2013-12-23 10:59:00,57.7,39.0,30.35,WSW,239,0.0,2.0,50,0.00,,,0.00,weatherlink.com 1.10,2013-12-23 18:59:00,
2013-12-23 11:14:00,59.3,40.0,30.34,WSW,240,1.0,1.0,49,0.00,,,0.00,weatherlink.com 1.10,2013-12-23 19:14:00,
2013-12-23 11:29:00,60.2,40.0,30.34,WSW,240,0.0,0.0,48,0.00,,,0.00,weatherlink.com 1.10,2013-12-23 19:29:00,
2013-12-23 11:44:00,61.2,40.0,30.33,WSW,240,1.0,1.0,46,0.00,,,0.00,weatherlink.com 1.10,2013-12-23 19:44:00,
2013-12-23 11:59:00,60.9,39.0,30.32,NE,46,0.0,3.0,45,0.00,,,0.00,weatherlink.com 1.10,2013-12-23 19:59:00,
2013-12-23 12:14:00,61.0,38.0,30.31,ENE,69,0.0,2.0,43,0.00,,,0.00,weatherlink.com 1.10,2013-12-23 20:14:00,
2013-12-23 12:29:00,61.2,39.0,30.30,ENE,69,0.0,1.0,44,0.00,,,0.00,weatherlink.com 1.10,2013-12-23 20:29:00,
2013-12-23 12:44:00,61.0,38.0,30.30,ENE,72,0.0,2.0,42,0.00,,,0.00,weatherlink.com 1.10,2013-12-23 20:44:00,
2013-12-23 12:59:00,61.0,40.0,30.29,ENE,59,0.0,4.0,46,0.00,,,0.00,weatherlink.com 1.10,2013-12-23 20:59:00,
2013-12-23 13:14:00,61.3,38.0,30.29,East,84,0.0,2.0,43,0.00,,,0.00,weatherlink.com 1.10,2013-12-23 21:14:00,
2013-12-23 13:29:00,61.8,39.0,30.28,East,90,0.0,3.0,43,0.00,,,0.00,weatherlink.com 1.10,2013-12-23 21:29:00,
2013-12-23 13:44:00,61.8,38.0,30.28,East,82,1.0,3.0,41,0.00,,,0.00,weatherlink.com 1.10,2013-12-23 21:44:00,
2013-12-23 13:59:00,62.3,39.0,30.28,East,90,0.0,4.0,42,0.00,,,0.00,weatherlink.com 1.10,2013-12-23 21:59:00,
2013-12-23 14:14:00,62.6,39.0,30.27,ENE,67,1.0,2.0,42,0.00,,,0.00,weatherlink.com 1.10,2013-12-23 22:14:00,
2013-12-23 14:29:00,63.1,40.0,30.27,SSE,156,0.0,2.0,43,0.00,,,0.00,weatherlink.com 1.10,2013-12-23 22:29:00,
2013-12-23 14:44:00,63.6,40.0,30.27,ENE,57,0.0,4.0,42,0.00,,,0.00,weatherlink.com 1.10,2013-12-23 22:44:00,
2013-12-23 14:59:00,64.1,40.0,30.27,NE,52,0.0,3.0,42,0.00,,,0.00,weatherlink.com 1.10,2013-12-23 22:59:00,
2013-12-23 15:14:00,64.2,40.0,30.27,ENE,58,0.0,3.0,42,0.00,,,0.00,weatherlink.com 1.10,2013-12-23 23:14:00,
2013-12-23 15:29:00,64.1,40.0,30.27,East,90,0.0,2.0,42,0.00,,,0.00,weatherlink.com 1.10,2013-12-23 23:29:00,
2013-12-23 15:44:00,63.9,40.0,30.27,East,82,0.0,1.0,42,0.00,,,0.00,weatherlink.com 1.10,2013-12-23 23:44:00,
2013-12-23 15:59:00,63.5,40.0,30.27,ENE,78,0.0,2.0,43,0.00,,,0.00,weatherlink.com 1.10,2013-12-23 23:59:00,
2013-12-23 16:14:00,62.9,40.0,30.27,ENE,78,0.0,1.0,44,0.00,,,0.00,weatherlink.com 1.10,2013-12-24 00:14:00,
2013-12-23 16:29:00,62.0,42.0,30.27,ENE,78,0.0,1.0,48,0.00,,,0.00,weatherlink.com 1.10,2013-12-24 00:29:00,
2013-12-23 16:44:00,60.4,42.0,30.27,ENE,78,0.0,0.0,51,0.00,,,0.00,weatherlink.com 1.10,2013-12-24 00:44:00,
2013-12-23 16:59:00,58.7,40.0,30.27,ENE,78,0.0,0.0,50,0.00,,,0.00,weatherlink.com 1.10,2013-12-24 00:59:00,
2013-12-23 17:29:00,56.1,38.0,30.28,ENE,78,0.0,0.0,52,0.00,,,0.00,weatherlink.com 1.10,2013-12-24 01:29:00,
2013-12-23 17:44:00,55.5,40.0,30.28,ENE,78,0.0,0.0,56,0.00,,,0.00,weatherlink.com 1.10,2013-12-24 01:44:00,
2013-12-23 17:59:00,54.5,39.0,30.28,ENE,78,0.0,0.0,57,0.00,,,0.00,weatherlink.com 1.10,2013-12-24 01:59:00,
2013-12-23 18:14:00,53.3,39.0,30.29,ENE,78,0.0,0.0,58,0.00,,,0.00,weatherlink.com 1.10,2013-12-24 02:14:00,
2013-12-23 18:29:00,52.4,40.0,30.29,ENE,78,0.0,0.0,64,0.00,,,0.00,weatherlink.com 1.10,2013-12-24 02:29:00,
2013-12-23 18:44:00,51.4,39.0,30.29,ENE,78,0.0,0.0,64,0.00,,,0.00,weatherlink.com 1.10,2013-12-24 02:44:00,
2013-12-23 18:59:00,50.9,39.0,30.29,ENE,78,0.0,0.0,64,0.00,,,0.00,weatherlink.com 1.10,2013-12-24 02:59:00,
2013-12-23 19:14:00,50.0,39.0,30.29,ENE,78,0.0,0.0,65,0.00,,,0.00,weatherlink.com 1.10,2013-12-24 03:14:00,
2013-12-23 19:29:00,49.6,39.0,30.29,ENE,78,0.0,0.0,66,0.00,,,0.00,weatherlink.com 1.10,2013-12-24 03:29:00,
2013-12-23 19:44:00,49.0,39.0,30.29,ENE,78,0.0,0.0,68,0.00,,,0.00,weatherlink.com 1.10,2013-12-24 03:44:00,
2013-12-23 20:00:00,48.6,39.0,30.29,ENE,78,0.0,0.0,69,0.00,,,0.00,weatherlink.com 1.10,2013-12-24 04:00:00,
2013-12-23 20:15:00,48.2,39.0,30.30,ENE,78,0.0,0.0,71,0.00,,,0.00,weatherlink.com 1.10,2013-12-24 04:15:00,
2013-12-23 20:30:00,47.6,39.0,30.30,ENE,78,0.0,1.0,72,0.00,,,0.00,weatherlink.com 1.10,2013-12-24 04:30:00,
2013-12-23 20:45:00,47.9,39.0,30.30,ENE,78,0.0,0.0,71,0.00,,,0.00,weatherlink.com 1.10,2013-12-24 04:45:00,
2013-12-23 21:00:00,48.0,39.0,30.30,ENE,78,0.0,0.0,71,0.00,,,0.00,weatherlink.com 1.10,2013-12-24 05:00:00,
2013-12-23 21:15:00,47.6,39.0,30.30,ENE,78,0.0,0.0,72,0.00,,,0.00,weatherlink.com 1.10,2013-12-24 05:15:00,
2013-12-23 21:30:00,47.1,39.0,30.30,ENE,78,0.0,0.0,73,0.00,,,0.00,weatherlink.com 1.10,2013-12-24 05:30:00,
2013-12-23 21:45:00,46.6,39.0,30.30,ENE,78,0.0,0.0,74,0.00,,,0.00,weatherlink.com 1.10,2013-12-24 05:45:00,
2013-12-23 22:00:00,46.0,39.0,30.30,ENE,78,0.0,0.0,76,0.00,,,0.00,weatherlink.com 1.10,2013-12-24 06:00:00,
2013-12-23 22:15:00,45.5,38.0,30.30,ENE,78,0.0,0.0,76,0.00,,,0.00,weatherlink.com 1.10,2013-12-24 06:15:00,
2013-12-23 22:30:00,45.0,39.0,30.30,ENE,78,0.0,0.0,78,0.00,,,0.00,weatherlink.com 1.10,2013-12-24 06:30:00,
2013-12-23 22:45:00,44.7,38.0,30.30,ENE,78,0.0,0.0,78,0.00,,,0.00,weatherlink.com 1.10,2013-12-24 06:45:00,
2013-12-23 23:00:00,44.2,38.0,30.29,ENE,78,0.0,0.0,79,0.00,,,0.00,weatherlink.com 1.10,2013-12-24 07:00:00,
2013-12-23 23:15:00,44.2,38.0,30.28,ENE,78,0.0,0.0,79,0.00,,,0.00,weatherlink.com 1.10,2013-12-24 07:15:00,
2013-12-23 23:30:00,43.7,37.0,30.29,ENE,78,0.0,0.0,78,0.00,,,0.00,weatherlink.com 1.10,2013-12-24 07:30:00,
2013-12-23 23:45:00,42.5,36.0,30.28,ENE,78,0.0,0.0,79,0.00,,,0.00,weatherlink.com 1.10,2013-12-24 07:45:00,